createdAt,value
2022-09-10T00:04:11.378Z,94.06
2022-09-10T00:09:17.602Z,94.19
2022-09-10T00:14:24.428Z,94.12
2022-09-10T00:19:31.638Z,93.84
2022-09-10T00:24:38.742Z,93.37
2022-09-10T00:29:53.102Z,93.10
2022-09-10T00:35:01.222Z,92.79
2022-09-10T00:40:09.232Z,92.59
2022-09-10T00:45:20.577Z,92.64
2022-09-10T00:50:30.391Z,92.81
2022-09-10T00:55:39.048Z,92.90
2022-09-10T01:00:45.894Z,93.03
2022-09-10T01:05:52.390Z,93.14
2022-09-10T01:11:13.385Z,93.15
2022-09-10T01:16:28.625Z,93.03
2022-09-10T01:21:40.902Z,92.94
2022-09-10T01:27:21.935Z,92.90
2022-09-10T01:32:29.994Z,92.84
2022-09-10T01:37:40.833Z,92.94
2022-09-10T01:42:49.690Z,92.75
2022-09-10T01:48:35.424Z,92.58
2022-09-10T01:54:00.191Z,92.58
2022-09-10T01:59:18.979Z,92.81
2022-09-10T02:04:26.186Z,92.88
2022-09-10T02:09:32.760Z,92.96
2022-09-10T02:14:39.599Z,92.76
2022-09-10T02:20:02.258Z,92.77
2022-09-10T02:25:11.157Z,92.94
2022-09-10T02:35:22.722Z,93.12
2022-09-10T02:40:31.429Z,93.18
2022-09-10T02:45:41.221Z,93.23
2022-09-10T02:50:48.514Z,92.85
2022-09-10T02:55:54.811Z,92.78
2022-09-10T03:01:09.450Z,92.96
2022-09-10T03:06:15.977Z,92.79
2022-09-10T03:11:24.038Z,92.83
2022-09-10T03:16:31.315Z,93.11
2022-09-10T03:21:37.075Z,93.19
2022-09-10T03:26:44.456Z,93.35
2022-09-10T03:31:51.799Z,93.05
2022-09-10T03:36:58.841Z,92.96
2022-09-10T03:42:05.421Z,92.94
2022-09-10T03:47:12.973Z,93.02
2022-09-10T03:52:19.353Z,93.10
2022-09-10T03:57:26.270Z,93.22
2022-09-10T04:02:32.842Z,93.56
2022-09-10T04:07:39.313Z,93.60
2022-09-10T04:12:45.728Z,93.70
2022-09-10T04:17:54.987Z,93.66
2022-09-10T04:23:03.680Z,93.45
2022-09-10T04:28:11.358Z,93.18
2022-09-10T04:33:17.692Z,93.21
2022-09-10T04:38:24.197Z,93.05
2022-09-10T04:43:31.421Z,93.04
2022-09-10T04:48:39.217Z,92.73
2022-09-10T04:53:46.697Z,92.53
2022-09-10T04:58:53.018Z,92.58
2022-09-10T05:03:59.285Z,92.51
2022-09-10T05:09:05.394Z,92.52
2022-09-10T05:14:12.383Z,92.12
2022-09-10T05:19:18.988Z,92.25
2022-09-10T05:24:28.557Z,92.43
2022-09-10T05:29:34.701Z,92.66
2022-09-10T05:34:41.222Z,92.84
2022-09-10T05:39:48.513Z,92.85
2022-09-10T05:44:54.492Z,92.63
2022-09-10T05:50:00.288Z,92.11
2022-09-10T05:55:09.197Z,91.75
2022-09-10T06:00:16.031Z,92.05
2022-09-10T06:05:25.169Z,91.80
2022-09-10T06:10:32.633Z,91.44
2022-09-10T06:15:39.137Z,91.46
2022-09-10T06:20:48.133Z,91.32
2022-09-10T06:26:04.297Z,91.21
2022-09-10T06:31:17.123Z,91.16
2022-09-10T06:36:23.946Z,90.44
2022-09-10T06:41:31.066Z,90.24
2022-09-10T06:52:14.328Z,90.35
2022-09-10T06:57:21.007Z,90.21
2022-09-10T07:02:27.516Z,90.30
2022-09-10T07:07:33.737Z,90.10
2022-09-10T07:12:42.415Z,89.97
2022-09-10T07:17:49.157Z,90.04
2022-09-10T07:22:56.182Z,89.87
2022-09-10T07:28:04.373Z,89.82
2022-09-10T07:33:12.293Z,89.61
2022-09-10T07:38:21.283Z,89.33
2022-09-10T07:43:28.469Z,88.92
2022-09-10T07:48:34.993Z,88.71
2022-09-10T07:53:49.993Z,88.62
2022-09-10T07:58:57.559Z,88.52
2022-09-10T08:04:07.771Z,88.31
2022-09-10T08:09:16.248Z,87.86
2022-09-10T08:14:27.971Z,87.97
2022-09-10T08:19:34.635Z,88.19
2022-09-10T08:24:41.053Z,87.82
2022-09-10T08:29:47.143Z,87.59
2022-09-10T08:34:53.489Z,87.60
2022-09-10T08:39:59.770Z,87.83
2022-09-10T08:45:12.080Z,87.29
2022-09-10T08:50:25.335Z,87.18
2022-09-10T08:55:34.485Z,86.83
2022-09-10T09:00:44.729Z,86.46
2022-09-10T09:05:58.384Z,86.39
2022-09-10T09:11:16.449Z,86.01
2022-09-10T09:16:47.811Z,85.75
2022-09-10T09:21:56.197Z,85.52
2022-09-10T09:27:11.302Z,85.01
2022-09-10T09:32:20.748Z,84.80
2022-09-10T09:37:30.421Z,84.93
2022-09-10T09:42:45.561Z,84.72
2022-09-10T09:47:54.497Z,84.71
2022-09-10T09:53:00.887Z,84.58
2022-09-10T09:58:38.917Z,84.31
2022-09-10T10:04:00.197Z,84.03
2022-09-10T10:09:20.251Z,83.85
2022-09-10T10:14:36.347Z,83.29
2022-09-10T10:19:44.030Z,82.99
2022-09-10T10:24:52.644Z,82.98
2022-09-10T10:30:02.030Z,83.30
2022-09-10T10:35:36.278Z,83.49
2022-09-10T10:40:48.769Z,83.28
2022-09-10T10:46:03.294Z,83.11
2022-09-10T10:51:18.072Z,82.91
2022-09-10T10:56:29.943Z,83.08
2022-09-10T11:01:41.529Z,83.40
2022-09-10T11:06:52.175Z,83.08
2022-09-10T11:12:01.419Z,83.13
2022-09-10T11:17:12.334Z,82.84
2022-09-10T11:22:24.014Z,82.97
2022-09-10T11:27:35.757Z,83.12
2022-09-10T11:32:46.543Z,83.05
2022-09-10T11:38:00.951Z,83.08
2022-09-10T11:43:11.287Z,82.70
2022-09-10T11:48:27.561Z,82.88
2022-09-10T11:53:34.244Z,82.87
2022-09-10T11:58:52.867Z,82.79
2022-09-10T12:04:29.656Z,82.10
2022-09-10T12:09:44.849Z,82.09
2022-09-10T12:14:51.049Z,82.20
2022-09-10T12:19:59.492Z,82.50
2022-09-10T12:25:22.969Z,82.52
2022-09-10T12:31:04.338Z,82.08
2022-09-10T12:36:10.731Z,82.17
2022-09-10T12:41:59.851Z,82.43
2022-09-10T12:47:41.123Z,82.64
2022-09-10T12:53:02.822Z,82.71
2022-09-10T12:58:23.450Z,83.09
2022-09-10T13:03:31.446Z,83.56
2022-09-10T13:08:42.647Z,83.61
2022-09-10T13:13:56.402Z,83.16
2022-09-10T13:19:43.011Z,82.76
2022-09-10T13:25:24.298Z,82.40
2022-09-10T13:30:31.383Z,82.04
2022-09-10T13:36:19.681Z,81.60
2022-09-10T13:41:58.845Z,81.32
2022-09-10T13:47:13.858Z,81.46
2022-09-10T13:52:22.254Z,82.04
2022-09-10T13:57:33.626Z,82.20
2022-09-10T14:02:48.194Z,82.01
2022-09-10T14:07:56.963Z,81.93
2022-09-10T14:13:03.926Z,81.95
2022-09-10T14:18:12.291Z,81.99
2022-09-10T14:23:19.010Z,81.99
2022-09-10T14:28:28.769Z,82.03
2022-09-10T14:33:37.060Z,82.27
2022-09-10T14:38:45.312Z,82.15
2022-09-10T14:44:12.202Z,81.51
2022-09-10T14:49:25.306Z,81.64
2022-09-10T14:54:33.786Z,81.94
2022-09-10T14:59:41.948Z,82.40
2022-09-10T15:04:48.189Z,82.99
2022-09-10T15:09:55.033Z,83.64
2022-09-10T15:15:00.711Z,83.93
2022-09-10T15:20:09.170Z,84.06
2022-09-10T15:25:38.041Z,84.41
2022-09-10T15:30:44.462Z,84.35
2022-09-10T15:35:50.350Z,84.44
2022-09-10T15:41:09.319Z,84.65
2022-09-10T15:46:17.084Z,84.84
2022-09-10T15:51:24.252Z,84.89
2022-09-10T15:56:30.620Z,84.72
2022-09-10T16:01:41.262Z,84.74
2022-09-10T16:06:47.268Z,84.99
2022-09-10T16:11:53.131Z,85.08
2022-09-10T16:17:00.913Z,85.19
2022-09-10T16:22:08.064Z,85.37
2022-09-10T16:27:14.178Z,85.53
2022-09-10T16:32:20.010Z,85.75
2022-09-10T16:37:26.291Z,85.93
2022-09-10T16:42:32.143Z,86.05
2022-09-10T16:47:38.159Z,86.23
2022-09-10T16:52:44.381Z,86.37
2022-09-10T16:57:50.199Z,86.51
2022-09-10T17:02:59.186Z,86.56
2022-09-10T17:08:06.384Z,86.82
2022-09-10T17:13:12.158Z,86.64
2022-09-10T17:18:18.345Z,86.54
2022-09-10T17:23:25.816Z,86.59
2022-09-10T17:28:33.194Z,86.70
2022-09-10T17:33:39.153Z,86.84
2022-09-10T17:38:46.089Z,86.64
2022-09-10T17:43:52.865Z,86.78
2022-09-10T17:49:02.631Z,86.42
2022-09-10T17:54:08.845Z,86.44
2022-09-10T17:59:15.487Z,86.56
2022-09-10T18:04:22.017Z,86.67
2022-09-10T18:09:28.255Z,86.71
2022-09-10T18:14:34.655Z,86.76
2022-09-10T18:19:41.340Z,86.70
2022-09-10T18:24:48.104Z,86.81
2022-09-10T18:29:53.913Z,86.81
2022-09-10T18:35:00.043Z,86.72
2022-09-10T18:40:07.968Z,86.90
2022-09-10T18:45:13.915Z,86.59
2022-09-10T18:50:19.846Z,86.99
2022-09-10T18:55:25.777Z,86.91
2022-09-10T19:00:32.693Z,87.45
2022-09-10T19:05:40.135Z,87.19
2022-09-10T19:10:46.095Z,87.13
2022-09-10T19:15:57.379Z,87.22
2022-09-10T19:21:05.861Z,87.32
2022-09-10T19:26:12.899Z,87.59
2022-09-10T19:31:20.735Z,87.52
2022-09-10T19:36:27.859Z,87.42
2022-09-10T19:41:35.350Z,87.36
2022-09-10T19:46:43.610Z,87.33
2022-09-10T19:51:50.223Z,87.44
2022-09-10T19:56:56.354Z,87.45
2022-09-10T20:02:02.387Z,87.32
2022-09-10T20:07:08.488Z,87.37
2022-09-10T20:12:16.278Z,87.37
2022-09-10T20:17:22.502Z,87.15
2022-09-10T20:22:28.386Z,87.09
2022-09-10T20:27:34.649Z,87.19
2022-09-10T20:32:41.053Z,86.92
2022-09-10T20:37:51.614Z,86.70
2022-09-10T20:42:57.638Z,86.87
2022-09-10T20:48:03.868Z,87.16
2022-09-10T20:53:10.100Z,87.14
2022-09-10T20:58:16.638Z,87.10
2022-09-10T21:03:23.297Z,87.19
2022-09-10T21:08:31.481Z,87.27
2022-09-10T21:13:42.697Z,87.89
2022-09-10T21:18:54.158Z,88.02
2022-09-10T21:24:03.215Z,88.01
2022-09-10T21:29:12.248Z,87.90
2022-09-10T21:34:19.245Z,87.86
2022-09-10T21:39:26.359Z,88.04
2022-09-10T21:44:32.309Z,88.45
2022-09-10T21:49:39.303Z,88.93
2022-09-10T21:54:45.483Z,89.44
2022-09-10T21:59:52.086Z,89.75
2022-09-10T22:04:58.265Z,89.73
2022-09-10T22:10:06.811Z,90.23
2022-09-10T22:15:14.619Z,90.40
2022-09-10T22:20:20.791Z,90.71
2022-09-10T22:25:26.792Z,90.76
2022-09-10T22:30:32.496Z,90.90
2022-09-10T22:35:39.138Z,91.28
2022-09-10T22:40:45.388Z,91.44
2022-09-10T22:45:51.374Z,91.36
2022-09-10T22:50:59.205Z,91.49
2022-09-10T22:56:06.164Z,91.59
2022-09-10T23:01:14.355Z,91.84
2022-09-10T23:06:22.691Z,92.02
2022-09-10T23:11:30.734Z,92.11
2022-09-10T23:16:38.923Z,92.10
2022-09-10T23:21:48.829Z,92.49
2022-09-10T23:26:55.417Z,92.72
2022-09-10T23:32:02.241Z,92.83
2022-09-10T23:37:10.015Z,92.95
2022-09-10T23:42:16.758Z,92.95
2022-09-10T23:47:22.910Z,93.10
2022-09-10T23:52:29.169Z,93.20
2022-09-10T23:57:35.263Z,93.41
